createdAt,value
2019-01-28T00:05:02.307Z,-0.27
2019-01-28T00:07:50.640Z,0.01
2019-01-28T00:10:19.946Z,0.04
2019-01-28T00:15:37.682Z,-0.17
2019-01-28T00:18:07.010Z,-0.24
2019-01-28T00:20:36.496Z,-0.24
2019-01-28T00:23:45.127Z,0.06
2019-01-28T00:26:14.536Z,0.06
2019-01-28T00:28:43.819Z,0.08
2019-01-28T00:31:13.396Z,0.09
2019-01-28T00:33:42.721Z,-0.41
2019-01-28T00:36:12.363Z,0.11
2019-01-28T00:38:41.714Z,-0.50
2019-01-28T00:41:11.246Z,0.12
2019-01-28T00:43:40.613Z,0.12
2019-01-28T00:46:10.354Z,0.11
2019-01-28T00:48:39.645Z,0.13
2019-01-28T00:51:09.029Z,0.13
2019-01-28T00:53:38.318Z,0.12
2019-01-28T00:56:08.019Z,0.11
2019-01-28T00:58:37.323Z,0.11
2019-01-28T01:01:06.875Z,0.10
2019-01-28T01:03:55.298Z,0.12
2019-01-28T01:06:24.570Z,0.12
2019-01-28T01:08:54.184Z,0.11
2019-01-28T01:11:23.497Z,0.13
2019-01-28T01:16:41.578Z,0.14
2019-01-28T01:19:10.846Z,0.13
2019-01-28T01:21:40.701Z,0.12
2019-01-28T01:24:10.016Z,0.14
2019-01-28T01:26:39.472Z,0.13
2019-01-28T01:29:08.763Z,0.13
2019-01-28T01:31:38.102Z,0.15
2019-01-28T01:34:07.380Z,0.16
2019-01-28T01:36:36.977Z,0.14
2019-01-28T01:39:08.508Z,-0.24
2019-01-28T01:41:56.783Z,0.13
2019-01-28T01:44:26.387Z,0.15
2019-01-28T01:46:55.662Z,0.16
2019-01-28T01:49:25.371Z,0.14
2019-01-28T01:51:54.573Z,0.14
2019-01-28T01:54:24.098Z,0.17
2019-01-28T01:56:53.370Z,0.16
2019-01-28T01:59:22.958Z,0.15
2019-01-28T02:02:11.439Z,0.16
2019-01-28T02:04:40.802Z,0.15
2019-01-28T02:07:10.325Z,0.15
2019-01-28T02:09:39.610Z,-0.14
2019-01-28T02:12:09.257Z,0.17
2019-01-28T02:19:47.635Z,0.19
2019-01-28T02:22:16.911Z,0.20
2019-01-28T02:24:46.245Z,0.18
2019-01-28T02:27:15.579Z,0.15
2019-01-28T02:29:44.863Z,0.17
2019-01-28T02:34:49.178Z,0.18
2019-01-28T02:37:37.515Z,0.16
2019-01-28T02:40:27.191Z,0.16
2019-01-28T02:42:56.707Z,-0.21
2019-01-28T02:45:25.980Z,0.15
2019-01-28T02:47:55.383Z,0.13
2019-01-28T02:50:24.672Z,-0.48
2019-01-28T02:52:54.222Z,0.09
2019-01-28T02:55:42.514Z,0.13
2019-01-28T02:58:11.859Z,0.13
2019-01-28T03:00:41.255Z,0.12
2019-01-28T03:03:10.537Z,0.10
2019-01-28T03:05:40.275Z,0.10
2019-01-28T03:08:09.548Z,0.09
2019-01-28T03:10:39.256Z,0.10
2019-01-28T03:13:08.533Z,0.11
2019-01-28T03:18:26.857Z,0.12
2019-01-28T03:20:56.141Z,0.15
2019-01-28T03:26:02.885Z,0.09
2019-01-28T03:28:32.184Z,0.13
2019-01-28T03:31:01.762Z,0.14
2019-01-28T03:33:31.043Z,0.11
2019-01-28T03:36:00.415Z,0.12
2019-01-28T03:38:29.711Z,0.10
2019-01-28T03:40:59.310Z,0.09
2019-01-28T03:43:28.599Z,-0.28
2019-01-28T03:45:58.130Z,0.12
2019-01-28T03:48:27.427Z,-0.20
2019-01-28T03:50:57.045Z,0.11
2019-01-28T03:53:26.611Z,0.12
2019-01-28T03:55:56.260Z,0.11
2019-01-28T03:58:25.572Z,-0.34
2019-01-28T04:00:55.200Z,0.11
2019-01-28T04:03:24.499Z,0.11
2019-01-28T04:05:54.090Z,0.13
2019-01-28T04:08:23.390Z,0.11
2019-01-28T04:10:53.041Z,0.13
2019-01-28T04:13:22.327Z,0.11
2019-01-28T04:15:51.735Z,0.11
2019-01-28T04:18:21.030Z,0.12
2019-01-28T04:21:09.361Z,0.14
2019-01-28T04:23:57.691Z,0.11
2019-01-28T04:26:45.950Z,0.12
2019-01-28T04:29:15.257Z,0.12
2019-01-28T04:31:44.530Z,0.11
2019-01-28T04:34:13.993Z,0.12
2019-01-28T04:36:43.235Z,0.11
2019-01-28T04:39:12.584Z,0.12
2019-01-28T04:42:00.903Z,0.12
2019-01-28T04:44:30.212Z,0.10
2019-01-28T04:46:59.528Z,-0.06
2019-01-28T04:49:28.834Z,0.07
2019-01-28T04:51:58.124Z,0.08
2019-01-28T04:54:27.632Z,0.06
2019-01-28T04:56:56.988Z,0.08
2019-01-28T04:59:26.262Z,0.07
2019-01-28T05:01:55.608Z,0.08
2019-01-28T05:04:24.902Z,0.09
2019-01-28T05:06:54.174Z,0.08
2019-01-28T05:09:42.454Z,0.10
2019-01-28T05:12:11.974Z,-0.41
2019-01-28T05:14:41.261Z,0.14
2019-01-28T05:17:10.748Z,0.13
2019-01-28T05:19:40.149Z,0.13
2019-01-28T05:22:09.539Z,0.14
2019-01-28T05:24:38.854Z,-0.17
2019-01-28T05:27:08.382Z,0.14
2019-01-28T05:29:37.702Z,0.14
2019-01-28T05:32:07.345Z,0.12
2019-01-28T05:34:36.639Z,-0.48
2019-01-28T05:37:05.988Z,0.12
2019-01-28T05:39:35.294Z,-0.30
2019-01-28T05:42:04.765Z,0.10
2019-01-28T05:47:22.418Z,0.10
2019-01-28T05:49:52.036Z,0.11
2019-01-28T05:52:21.348Z,0.13
2019-01-28T05:54:50.928Z,0.12
2019-01-28T05:57:20.213Z,0.14
2019-01-28T05:59:49.790Z,0.14
2019-01-28T06:02:19.057Z,0.13
2019-01-28T06:04:48.591Z,0.13
2019-01-28T06:07:37.037Z,0.14
2019-01-28T06:10:26.257Z,0.15
2019-01-28T06:12:55.545Z,0.15
2019-01-28T06:15:25.133Z,0.14
2019-01-28T06:17:54.437Z,0.15
2019-01-28T06:20:24.213Z,0.14
2019-01-28T06:22:56.688Z,0.15
2019-01-28T06:25:27.484Z,0.14
2019-01-28T06:27:56.970Z,0.14
2019-01-28T06:30:28.691Z,0.16
2019-01-28T06:36:09.132Z,0.17
2019-01-28T06:38:38.554Z,0.18
2019-01-28T06:41:07.901Z,-0.12
2019-01-28T06:46:57.083Z,0.20
2019-01-28T06:49:45.660Z,0.16
2019-01-28T06:52:26.574Z,0.19
2019-01-28T06:54:56.520Z,0.19
2019-01-28T06:57:28.164Z,0.06
2019-01-28T06:59:57.514Z,0.19
2019-01-28T07:05:23.030Z,0.23
2019-01-28T07:07:52.391Z,0.25
2019-01-28T07:10:21.702Z,0.24
2019-01-28T07:12:51.239Z,0.26
2019-01-28T07:15:59.907Z,-0.05
2019-01-28T07:18:29.439Z,0.27
2019-01-28T07:21:17.895Z,0.29
2019-01-28T07:23:47.198Z,0.30
2019-01-28T07:26:16.825Z,0.31
2019-01-28T07:31:21.026Z,0.31
2019-01-28T07:33:50.351Z,0.33
2019-01-28T07:36:19.650Z,0.35
2019-01-28T07:38:49.058Z,0.36
2019-01-28T07:41:18.366Z,0.39
2019-01-28T07:43:47.976Z,0.39
2019-01-28T07:46:36.313Z,0.38
2019-01-28T07:49:05.808Z,0.39
2019-01-28T07:51:35.218Z,0.43
2019-01-28T07:54:25.229Z,0.44
2019-01-28T07:56:54.535Z,0.45
2019-01-28T08:00:03.213Z,0.45
2019-01-28T08:02:32.504Z,0.44
2019-01-28T08:05:02.056Z,0.45
2019-01-28T08:07:31.423Z,0.45
2019-01-28T08:10:00.992Z,0.44
2019-01-28T08:12:50.050Z,0.45
2019-01-28T08:15:20.693Z,0.47
2019-01-28T08:17:50.190Z,0.46
2019-01-28T08:20:20.088Z,0.49
2019-01-28T08:22:49.476Z,0.49
2019-01-28T08:25:58.697Z,0.16
2019-01-28T08:28:28.294Z,0.48
2019-01-28T08:30:57.588Z,0.49
2019-01-28T08:33:27.000Z,0.51
2019-01-28T08:35:56.280Z,0.31
2019-01-28T08:38:25.583Z,0.55
2019-01-28T08:40:54.905Z,0.53
2019-01-28T08:43:24.212Z,0.57
2019-01-28T08:45:53.536Z,0.31
2019-01-28T08:48:22.855Z,0.60
2019-01-28T08:50:52.155Z,0.21
2019-01-28T08:53:21.576Z,0.62
2019-01-28T08:55:50.968Z,0.64
2019-01-28T08:58:20.274Z,0.64
2019-01-28T09:00:49.561Z,0.67
2019-01-28T09:03:37.840Z,0.68
2019-01-28T09:09:00.971Z,0.72
2019-01-28T09:11:30.355Z,0.71
2019-01-28T09:13:59.664Z,0.74
2019-01-28T09:16:29.087Z,0.76
2019-01-28T09:18:58.377Z,0.76
2019-01-28T09:21:28.517Z,0.85
2019-01-28T09:23:57.875Z,0.86
2019-01-28T09:26:27.242Z,0.86
2019-01-28T09:28:56.687Z,0.85
2019-01-28T09:31:26.249Z,0.81
2019-01-28T09:34:14.468Z,0.80
2019-01-28T09:36:43.758Z,0.79
2019-01-28T09:39:32.124Z,0.83
2019-01-28T09:42:01.623Z,0.84
2019-01-28T09:44:30.989Z,0.85
2019-01-28T09:47:00.298Z,0.87
2019-01-28T09:49:30.132Z,0.82
2019-01-28T09:52:18.460Z,0.87
2019-01-28T09:54:48.572Z,0.92
2019-01-28T09:57:17.957Z,0.93
2019-01-28T09:59:47.351Z,0.96
2019-01-28T10:02:16.642Z,0.65
2019-01-28T10:04:46.085Z,1.03
2019-01-28T10:07:15.402Z,1.09
2019-01-28T10:09:44.753Z,1.07
2019-01-28T10:12:14.097Z,1.12
2019-01-28T10:15:22.810Z,1.13
2019-01-28T10:26:52.276Z,1.07
2019-01-28T10:29:43.011Z,1.09
2019-01-28T10:32:13.477Z,1.11
2019-01-28T10:34:45.307Z,1.08
2019-01-28T10:37:15.054Z,1.12
2019-01-28T10:39:45.077Z,1.12
2019-01-28T10:42:17.670Z,1.13
2019-01-28T10:44:54.838Z,1.12
2019-01-28T10:47:24.386Z,1.15
2019-01-28T10:49:54.377Z,1.18
2019-01-28T10:52:24.218Z,1.21
2019-01-28T10:57:54.197Z,1.08
2019-01-28T11:03:27.246Z,1.28
2019-01-28T11:06:01.393Z,1.32
2019-01-28T11:08:49.974Z,1.32
2019-01-28T11:11:20.070Z,1.39
2019-01-28T11:14:28.718Z,1.38
2019-01-28T11:16:58.465Z,1.38
2019-01-28T11:19:28.215Z,1.05
2019-01-28T11:22:36.904Z,1.42
2019-01-28T11:25:09.502Z,1.29
2019-01-28T11:31:00.028Z,1.47
2019-01-28T11:33:49.540Z,1.43
2019-01-28T11:39:17.388Z,1.42
2019-01-28T11:41:49.194Z,1.45
2019-01-28T11:44:37.989Z,1.44
2019-01-28T11:47:07.546Z,1.44
2019-01-28T11:49:37.436Z,1.45
2019-01-28T11:52:06.792Z,1.49
2019-01-28T11:54:36.759Z,1.48
2019-01-28T11:57:25.349Z,1.47
2019-01-28T12:03:09.313Z,1.48
2019-01-28T12:05:38.853Z,1.49
2019-01-28T12:08:11.481Z,1.47
2019-01-28T12:10:41.072Z,1.48
2019-01-28T12:13:12.617Z,1.18
2019-01-28T12:15:44.345Z,1.46
2019-01-28T12:18:14.433Z,1.48
2019-01-28T12:20:44.726Z,1.49
2019-01-28T12:23:27.267Z,1.47
2019-01-28T12:28:57.876Z,1.44
2019-01-28T12:31:28.130Z,1.42
2019-01-28T12:34:00.647Z,1.47
2019-01-28T12:36:31.386Z,1.51
2019-01-28T12:39:01.588Z,1.48
2019-01-28T12:41:31.322Z,1.49
2019-01-28T12:46:36.293Z,1.51
2019-01-28T12:49:07.927Z,1.08
2019-01-28T12:54:15.468Z,1.53
2019-01-28T12:56:46.046Z,1.52
2019-01-28T12:59:34.710Z,1.49
2019-01-28T13:02:23.226Z,1.51
2019-01-28T13:04:53.072Z,1.53
2019-01-28T13:07:22.653Z,1.54
2019-01-28T13:09:52.672Z,1.57
2019-01-28T13:12:22.117Z,1.58
2019-01-28T13:14:51.730Z,1.54
2019-01-28T13:17:21.680Z,1.42
2019-01-28T13:19:53.620Z,1.56
2019-01-28T13:27:57.856Z,1.51
2019-01-28T13:30:34.285Z,1.56
2019-01-28T13:33:22.780Z,1.59
2019-01-28T13:35:52.475Z,1.53
2019-01-28T13:38:22.146Z,1.55
2019-01-28T13:40:51.511Z,1.49
2019-01-28T13:43:21.499Z,1.50
2019-01-28T13:45:59.535Z,1.46
2019-01-28T13:51:53.535Z,1.51
2019-01-28T13:57:15.317Z,1.58
2019-01-28T14:03:11.049Z,1.58
2019-01-28T14:08:29.597Z,1.59
2019-01-28T14:16:50.252Z,1.63
2019-01-28T14:19:19.776Z,1.66
2019-01-28T14:21:49.280Z,1.68
2019-01-28T14:24:19.155Z,1.68
2019-01-28T14:26:48.455Z,1.62
2019-01-28T14:29:18.194Z,1.55
2019-01-28T14:31:47.480Z,1.54
2019-01-28T14:34:16.828Z,1.50
2019-01-28T14:36:46.126Z,1.51
2019-01-28T14:39:34.469Z,1.51
2019-01-28T14:42:04.235Z,1.52
2019-01-28T14:44:33.532Z,1.55
2019-01-28T14:47:03.113Z,1.57
2019-01-28T14:49:32.572Z,1.57
2019-01-28T14:52:02.264Z,1.55
2019-01-28T14:54:31.546Z,1.57
2019-01-28T14:57:01.303Z,1.59
2019-01-28T14:59:30.585Z,1.59
2019-01-28T15:02:00.366Z,1.54
2019-01-28T15:04:29.795Z,1.54
2019-01-28T15:06:59.585Z,1.53
2019-01-28T15:09:31.472Z,1.53
2019-01-28T15:12:00.858Z,1.54
2019-01-28T15:14:49.236Z,1.54
2019-01-28T15:17:18.704Z,1.54
2019-01-28T15:19:50.796Z,1.55
2019-01-28T15:22:19.926Z,1.54
2019-01-28T15:24:49.486Z,1.54
2019-01-28T15:27:19.257Z,1.54
2019-01-28T15:29:48.608Z,1.52
2019-01-28T15:32:18.571Z,1.52
2019-01-28T15:34:47.941Z,1.49
2019-01-28T15:37:17.350Z,1.46
2019-01-28T15:39:46.643Z,1.49
2019-01-28T15:42:16.140Z,1.48
2019-01-28T15:45:11.220Z,1.46
2019-01-28T15:47:35.379Z,1.47
2019-01-28T15:50:10.505Z,1.43
2019-01-28T15:52:36.507Z,1.40
2019-01-28T15:55:28.820Z,1.39
2019-01-28T15:57:58.162Z,1.37
2019-01-28T16:00:29.444Z,1.36
2019-01-28T16:03:18.174Z,1.33
2019-01-28T16:05:47.478Z,1.32
2019-01-28T16:08:17.019Z,1.31
2019-01-28T16:10:46.347Z,1.31
2019-01-28T16:13:15.907Z,1.30
2019-01-28T16:18:41.445Z,1.29
2019-01-28T16:21:10.783Z,1.27
2019-01-28T16:23:40.174Z,1.27
2019-01-28T16:26:28.384Z,1.26
2019-01-28T16:28:57.793Z,1.26
2019-01-28T16:31:27.298Z,1.22
2019-01-28T16:34:15.860Z,1.20
2019-01-28T16:36:56.452Z,1.21
2019-01-28T16:39:26.107Z,1.22
2019-01-28T16:42:14.359Z,1.19
2019-01-28T16:44:43.699Z,1.18
2019-01-28T16:47:13.063Z,1.16
2019-01-28T16:49:42.377Z,1.14
2019-01-28T16:52:11.688Z,1.12
2019-01-28T16:54:41.094Z,1.11
2019-01-28T16:57:10.421Z,1.13
2019-01-28T16:59:39.828Z,1.05
2019-01-28T17:02:09.118Z,1.10
2019-01-28T17:04:38.409Z,1.12
2019-01-28T17:07:26.750Z,1.12
2019-01-28T17:13:10.301Z,1.14
2019-01-28T17:15:39.919Z,1.14
2019-01-28T17:18:09.347Z,1.13
2019-01-28T17:21:18.017Z,1.10
2019-01-28T17:23:47.343Z,0.86
2019-01-28T17:26:16.898Z,1.15
2019-01-28T17:28:46.184Z,0.59
2019-01-28T17:31:34.468Z,1.15
2019-01-28T17:34:04.145Z,1.13
2019-01-28T17:36:33.461Z,0.59
2019-01-28T17:44:15.220Z,1.12
2019-01-28T17:46:44.550Z,0.52
2019-01-28T17:49:16.325Z,1.07
2019-01-28T17:51:45.607Z,1.09
2019-01-28T17:54:15.196Z,1.07
2019-01-28T17:56:44.491Z,1.07
2019-01-28T17:59:13.965Z,1.09
2019-01-28T18:01:43.274Z,1.07
2019-01-28T18:04:12.613Z,1.07
2019-01-28T18:06:41.906Z,0.60
2019-01-28T18:09:11.274Z,1.08
2019-01-28T18:11:40.590Z,1.05
2019-01-28T18:14:10.043Z,1.06
2019-01-28T18:16:39.352Z,1.05
2019-01-28T18:19:08.947Z,1.03
2019-01-28T18:21:38.452Z,1.04
2019-01-28T18:24:07.927Z,1.08
2019-01-28T18:26:37.214Z,1.04
2019-01-28T18:29:06.718Z,1.02
2019-01-28T18:31:36.836Z,0.95
2019-01-28T18:34:07.190Z,1.00
2019-01-28T18:36:36.494Z,0.66
2019-01-28T18:39:47.376Z,0.97
2019-01-28T18:42:16.905Z,0.95
2019-01-28T18:44:46.187Z,0.99
2019-01-28T18:47:34.577Z,0.95
2019-01-28T18:52:43.456Z,0.95
2019-01-28T18:55:52.186Z,0.94
2019-01-28T18:58:40.510Z,0.93
2019-01-28T19:01:09.890Z,0.91
2019-01-28T19:03:39.199Z,0.89
2019-01-28T19:09:16.483Z,0.89
2019-01-28T19:11:51.004Z,0.90
2019-01-28T19:14:39.247Z,0.91
2019-01-28T19:17:27.436Z,0.91
2019-01-28T19:20:15.633Z,0.87
2019-01-28T19:22:45.135Z,0.82
2019-01-28T19:25:15.458Z,0.84
2019-01-28T19:27:44.805Z,0.80
2019-01-28T19:33:15.736Z,0.20
2019-01-28T19:35:45.044Z,0.75
2019-01-28T19:38:14.503Z,0.75
2019-01-28T19:40:43.834Z,0.45
2019-01-28T19:43:13.388Z,0.75
2019-01-28T19:45:42.699Z,0.30
2019-01-28T19:48:12.188Z,0.65
2019-01-28T19:50:41.467Z,0.63
2019-01-28T19:53:10.939Z,0.56
2019-01-28T19:55:40.320Z,0.56
2019-01-28T19:58:09.757Z,0.52
2019-01-28T20:00:39.102Z,0.52
2019-01-28T20:03:10.445Z,0.54
2019-01-28T20:05:39.849Z,0.57
2019-01-28T20:08:09.313Z,0.53
2019-01-28T20:10:38.668Z,0.52
2019-01-28T20:13:08.367Z,0.45
2019-01-28T20:18:12.410Z,0.40
2019-01-28T20:20:42.231Z,0.35
2019-01-28T20:23:11.523Z,0.30
2019-01-28T20:28:29.610Z,0.34
2019-01-28T20:30:58.921Z,0.17
2019-01-28T20:33:28.414Z,0.26
2019-01-28T20:35:57.840Z,-0.25
2019-01-28T20:38:27.361Z,0.27
2019-01-28T20:41:15.758Z,0.21
2019-01-28T20:43:45.111Z,0.10
2019-01-28T20:46:14.686Z,0.12
2019-01-28T20:48:44.033Z,0.11
2019-01-28T20:54:02.056Z,0.14
2019-01-28T20:56:31.418Z,0.08
2019-01-28T20:59:01.110Z,0.03
2019-01-28T21:01:30.544Z,0.02
2019-01-28T21:04:00.330Z,0.04
2019-01-28T21:06:48.984Z,0.01
2019-01-28T21:09:18.312Z,-0.05
2019-01-28T21:12:06.659Z,-0.07
2019-01-28T21:14:36.148Z,-0.04
2019-01-28T21:17:06.053Z,-0.06
2019-01-28T21:22:29.718Z,-0.10
2019-01-28T21:24:59.061Z,-0.11
2019-01-28T21:27:47.480Z,-0.10
2019-01-28T21:30:35.942Z,-0.11
2019-01-28T21:36:12.814Z,-0.47
2019-01-28T21:39:01.257Z,-0.16
2019-01-28T21:41:30.934Z,-0.75
2019-01-28T21:44:00.271Z,-0.22
2019-01-28T21:46:29.813Z,-0.26
2019-01-28T21:48:59.114Z,-0.33
2019-01-28T21:51:28.451Z,-0.39
2019-01-28T21:53:57.808Z,-0.95
2019-01-28T21:56:27.337Z,-0.33
2019-01-28T21:58:56.645Z,-0.72
2019-01-28T22:01:26.309Z,-0.51
2019-01-28T22:04:14.913Z,-0.31
2019-01-28T22:06:44.189Z,-0.35
2019-01-28T22:09:14.103Z,-0.35
2019-01-28T22:11:43.387Z,-0.35
2019-01-28T22:17:01.529Z,-0.44
2019-01-28T22:19:30.853Z,-0.41
2019-01-28T22:22:00.361Z,-0.40
2019-01-28T22:24:49.036Z,-0.77
2019-01-28T22:27:18.337Z,-0.47
2019-01-28T22:29:47.986Z,-0.41
2019-01-28T22:32:17.315Z,-0.39
2019-01-28T22:34:47.988Z,-0.49
2019-01-28T22:37:18.188Z,-0.44
2019-01-28T22:39:47.738Z,-0.42
2019-01-28T22:42:21.455Z,-0.40
2019-01-28T22:44:48.047Z,-0.43
2019-01-28T22:47:17.378Z,-0.41
2019-01-28T22:49:46.717Z,-0.41
2019-01-28T22:52:16.022Z,-0.39
2019-01-28T22:54:45.374Z,-0.44
2019-01-28T22:57:14.745Z,-0.51
2019-01-28T22:59:44.232Z,-0.50
2019-01-28T23:02:13.626Z,-0.45
2019-01-28T23:04:43.007Z,-0.46
2019-01-28T23:07:12.307Z,-0.48
2019-01-28T23:09:41.711Z,-0.57
2019-01-28T23:12:10.996Z,-0.53
2019-01-28T23:14:40.369Z,-0.54
2019-01-28T23:17:09.660Z,-0.56
2019-01-28T23:19:39.198Z,-0.55
2019-01-28T23:22:16.029Z,-0.57
2019-01-28T23:24:39.605Z,-0.63
2019-01-28T23:27:09.117Z,-0.92
2019-01-28T23:29:57.373Z,-0.67
2019-01-28T23:32:26.724Z,-1.00
2019-01-28T23:34:56.015Z,-1.00
2019-01-28T23:37:25.400Z,-0.68
2019-01-28T23:39:54.686Z,-1.02
2019-01-28T23:42:24.247Z,-0.79
2019-01-28T23:44:53.614Z,-0.78
2019-01-28T23:47:22.977Z,-0.77
2019-01-28T23:49:52.268Z,-0.82
2019-01-28T23:52:24.943Z,-0.84
2019-01-28T23:54:52.982Z,-0.83
2019-01-28T23:57:22.399Z,-0.87
2019-01-28T23:59:51.762Z,-1.45
